createdAt,value
2018-05-18T00:00:20.580Z,0.00
2018-05-18T00:01:20.494Z,0.00
2018-05-18T00:02:20.426Z,0.00
2018-05-18T00:03:20.343Z,0.00
2018-05-18T00:04:20.274Z,0.00
2018-05-18T00:05:20.195Z,0.00
2018-05-18T00:06:20.122Z,0.00
2018-05-18T00:07:20.040Z,0.00
2018-05-18T00:08:19.969Z,0.00
2018-05-18T00:09:19.889Z,0.00
2018-05-18T00:10:19.823Z,0.00
2018-05-18T00:11:19.735Z,0.00
2018-05-18T00:12:19.669Z,0.00
2018-05-18T00:13:19.585Z,0.00
2018-05-18T00:14:19.516Z,0.00
2018-05-18T00:15:19.431Z,0.00
2018-05-18T00:16:19.362Z,0.00
2018-05-18T00:17:19.281Z,0.00
2018-05-18T00:18:19.207Z,0.00
2018-05-18T00:19:19.130Z,0.00
2018-05-18T00:20:19.059Z,0.00
2018-05-18T00:21:18.982Z,0.00
2018-05-18T00:22:18.910Z,0.00
2018-05-18T00:23:18.832Z,0.00
2018-05-18T00:24:19.757Z,0.00
2018-05-18T00:25:18.674Z,0.00
2018-05-18T00:26:18.605Z,0.00
2018-05-18T00:27:18.519Z,0.00
2018-05-18T00:28:18.449Z,0.00
2018-05-18T00:29:18.366Z,0.00
2018-05-18T00:30:18.310Z,0.00
2018-05-18T00:31:18.216Z,0.00
2018-05-18T00:32:18.147Z,0.00
2018-05-18T00:33:18.064Z,0.00
2018-05-18T00:34:17.999Z,0.00
2018-05-18T00:35:17.909Z,0.00
2018-05-18T00:36:17.844Z,0.00
2018-05-18T00:37:17.759Z,0.00
2018-05-18T00:38:17.688Z,0.00
2018-05-18T00:39:17.601Z,0.00
2018-05-18T00:40:17.535Z,0.00
2018-05-18T00:41:17.454Z,0.00
2018-05-18T00:42:17.449Z,0.00
2018-05-18T00:43:17.303Z,0.00
2018-05-18T00:44:17.231Z,0.00
2018-05-18T00:45:17.149Z,0.00
2018-05-18T00:46:17.079Z,0.00
2018-05-18T00:47:16.997Z,0.00
2018-05-18T00:48:16.925Z,0.00
2018-05-18T00:49:16.841Z,0.00
2018-05-18T00:50:16.776Z,0.00
2018-05-18T00:51:16.696Z,0.00
2018-05-18T00:52:16.624Z,0.00
2018-05-18T00:53:16.542Z,0.00
2018-05-18T00:54:16.466Z,0.00
2018-05-18T00:55:16.393Z,0.00
2018-05-18T00:56:16.317Z,0.00
2018-05-18T00:57:16.236Z,0.00
2018-05-18T00:58:16.171Z,0.00
2018-05-18T00:59:16.079Z,0.00
2018-05-18T01:00:16.017Z,0.00
2018-05-18T01:01:15.931Z,0.00
2018-05-18T01:02:15.857Z,0.00
2018-05-18T01:03:15.778Z,0.00
2018-05-18T01:04:15.707Z,0.00
2018-05-18T01:05:15.626Z,0.00
2018-05-18T01:06:15.561Z,0.00
2018-05-18T01:07:15.469Z,0.00
2018-05-18T01:08:15.407Z,0.00
2018-05-18T01:09:15.319Z,0.00
2018-05-18T01:10:15.251Z,0.00
2018-05-18T01:11:15.169Z,0.00
2018-05-18T01:12:15.096Z,0.00
2018-05-18T01:13:15.015Z,0.00
2018-05-18T01:14:14.946Z,0.00
2018-05-18T01:15:14.861Z,0.00
2018-05-18T01:16:14.792Z,0.00
2018-05-18T01:17:14.709Z,0.00
2018-05-18T01:18:14.639Z,0.00
2018-05-18T01:19:14.561Z,0.00
2018-05-18T01:20:14.487Z,0.00
2018-05-18T01:21:14.405Z,0.00
2018-05-18T01:22:14.334Z,0.00
2018-05-18T01:23:14.253Z,0.00
2018-05-18T01:24:14.183Z,0.00
2018-05-18T01:25:14.096Z,0.00
2018-05-18T01:26:14.033Z,0.00
2018-05-18T01:27:13.949Z,0.00
2018-05-18T01:28:13.878Z,0.00
2018-05-18T01:29:13.790Z,0.00
2018-05-18T01:30:13.729Z,0.00
2018-05-18T01:31:13.644Z,0.00
2018-05-18T01:32:13.572Z,0.00
2018-05-18T01:33:13.488Z,0.00
2018-05-18T01:34:13.420Z,0.00
2018-05-18T01:35:13.334Z,0.00
2018-05-18T01:36:13.264Z,0.00
2018-05-18T01:37:13.183Z,0.00
2018-05-18T01:38:13.120Z,0.00
2018-05-18T01:39:13.029Z,0.00
2018-05-18T01:40:12.962Z,0.00
2018-05-18T01:41:12.875Z,0.00
2018-05-18T01:42:12.805Z,0.00
2018-05-18T01:43:12.720Z,0.00
2018-05-18T01:44:12.652Z,0.00
2018-05-18T01:45:12.576Z,0.00
2018-05-18T01:46:12.503Z,0.00
2018-05-18T01:47:12.417Z,0.00
2018-05-18T01:48:12.349Z,0.00
2018-05-18T01:49:12.263Z,0.00
2018-05-18T01:50:12.200Z,0.00
2018-05-18T01:51:12.111Z,0.00
2018-05-18T01:52:12.044Z,0.00
2018-05-18T01:53:11.961Z,0.00
2018-05-18T01:54:11.889Z,0.00
2018-05-18T01:55:11.807Z,0.00
2018-05-18T01:56:11.737Z,0.00
2018-05-18T01:57:11.652Z,0.00
2018-05-18T01:58:11.583Z,0.00
2018-05-18T01:59:11.499Z,0.00
2018-05-18T02:00:11.441Z,0.00
2018-05-18T02:01:11.346Z,0.00
2018-05-18T02:02:11.278Z,0.00
2018-05-18T02:03:11.191Z,0.00
2018-05-18T02:04:11.123Z,0.00
2018-05-18T02:05:11.042Z,0.00
2018-05-18T02:06:10.973Z,0.00
2018-05-18T02:07:10.890Z,0.00
2018-05-18T02:08:10.822Z,0.00
2018-05-18T02:09:10.736Z,0.00
2018-05-18T02:10:10.672Z,0.00
2018-05-18T02:11:10.590Z,0.00
2018-05-18T02:12:10.510Z,0.00
2018-05-18T02:13:10.428Z,0.00
2018-05-18T02:14:10.367Z,0.00
2018-05-18T02:15:10.274Z,0.00
2018-05-18T02:16:10.212Z,0.00
2018-05-18T02:17:10.121Z,0.00
2018-05-18T02:18:10.054Z,0.00
2018-05-18T02:19:09.969Z,0.00
2018-05-18T02:20:09.900Z,0.00
2018-05-18T02:21:09.816Z,0.00
2018-05-18T02:22:09.750Z,0.00
2018-05-18T02:23:09.660Z,0.00
2018-05-18T02:24:10.592Z,0.00
2018-05-18T02:25:09.510Z,0.00
2018-05-18T02:26:09.437Z,0.00
2018-05-18T02:27:09.355Z,0.00
2018-05-18T02:28:09.290Z,0.00
2018-05-18T02:29:09.202Z,0.00
2018-05-18T02:30:09.137Z,0.00
2018-05-18T02:31:09.046Z,0.00
2018-05-18T02:32:08.987Z,0.00
2018-05-18T02:33:08.896Z,0.00
2018-05-18T02:34:08.828Z,0.00
2018-05-18T02:35:08.747Z,0.00
2018-05-18T02:36:08.672Z,0.00
2018-05-18T02:37:08.599Z,0.00
2018-05-18T02:38:08.523Z,0.00
2018-05-18T02:39:08.432Z,0.00
2018-05-18T02:40:08.369Z,0.00
2018-05-18T02:41:08.288Z,0.00
2018-05-18T02:42:08.218Z,0.00
2018-05-18T02:43:08.136Z,0.00
2018-05-18T02:44:08.061Z,0.00
2018-05-18T02:45:07.977Z,0.00
2018-05-18T02:46:07.908Z,0.00
2018-05-18T02:47:07.823Z,0.00
2018-05-18T02:48:07.768Z,0.00
2018-05-18T02:49:07.678Z,0.00
2018-05-18T02:50:07.601Z,0.00
2018-05-18T02:51:07.521Z,0.00
2018-05-18T02:52:07.454Z,0.00
2018-05-18T02:53:07.366Z,0.00
2018-05-18T02:54:07.292Z,0.00
2018-05-18T02:55:07.213Z,0.00
2018-05-18T02:56:08.144Z,0.00
2018-05-18T02:57:07.063Z,0.00
2018-05-18T02:58:06.988Z,0.00
2018-05-18T02:59:06.910Z,0.00
2018-05-18T03:00:06.837Z,0.00
2018-05-18T03:01:06.754Z,0.00
2018-05-18T03:02:06.684Z,0.00
2018-05-18T03:03:06.598Z,0.00
2018-05-18T03:04:06.536Z,0.00
2018-05-18T03:05:06.446Z,0.00
2018-05-18T03:06:06.376Z,0.00
2018-05-18T03:07:06.289Z,0.00
2018-05-18T03:08:06.221Z,0.00
2018-05-18T03:09:06.146Z,0.00
2018-05-18T03:10:06.072Z,0.00
2018-05-18T03:11:05.985Z,0.00
2018-05-18T03:12:05.911Z,0.00
2018-05-18T03:13:05.829Z,0.00
2018-05-18T03:14:05.759Z,0.00
2018-05-18T03:15:05.676Z,0.00
2018-05-18T03:16:05.610Z,0.00
2018-05-18T03:17:05.524Z,0.00
2018-05-18T03:18:05.453Z,0.00
2018-05-18T03:19:05.369Z,0.00
2018-05-18T03:20:05.299Z,0.00
2018-05-18T03:21:05.358Z,0.00
2018-05-18T03:22:05.150Z,0.00
2018-05-18T03:23:05.064Z,0.00
2018-05-18T03:24:04.993Z,0.00
2018-05-18T03:25:04.908Z,0.00
2018-05-18T03:26:04.839Z,0.00
2018-05-18T03:27:04.756Z,0.00
2018-05-18T03:28:04.685Z,0.00
2018-05-18T03:29:04.602Z,0.00
2018-05-18T03:30:04.532Z,0.00
2018-05-18T03:31:04.451Z,0.00
2018-05-18T03:32:04.381Z,0.00
2018-05-18T03:33:04.295Z,0.00
2018-05-18T03:34:04.227Z,0.00
2018-05-18T03:35:04.146Z,0.00
2018-05-18T03:36:04.073Z,0.00
2018-05-18T03:37:03.989Z,0.00
2018-05-18T03:38:04.920Z,0.00
2018-05-18T03:39:03.841Z,0.00
2018-05-18T03:40:03.805Z,0.00
2018-05-18T03:41:03.681Z,0.00
2018-05-18T03:42:03.720Z,0.00
2018-05-18T03:43:03.528Z,0.00
2018-05-18T03:44:03.524Z,0.00
2018-05-18T03:45:03.376Z,0.00
2018-05-18T03:46:03.333Z,0.00
2018-05-18T03:47:03.222Z,0.00
2018-05-18T03:48:03.242Z,0.00
2018-05-18T03:49:03.072Z,0.00
2018-05-18T03:50:03.055Z,0.00
2018-05-18T03:51:02.917Z,0.00
2018-05-18T03:52:02.867Z,0.00
2018-05-18T03:53:02.760Z,0.00
2018-05-18T03:54:02.706Z,0.00
2018-05-18T03:55:02.610Z,0.00
2018-05-18T03:56:02.579Z,0.00
2018-05-18T03:57:02.456Z,5.63
2018-05-18T03:58:02.492Z,5.63
2018-05-18T03:59:02.307Z,5.63
2018-05-18T04:00:02.299Z,5.63
2018-05-18T04:01:02.148Z,5.63
2018-05-18T04:02:02.109Z,5.63
2018-05-18T04:03:01.995Z,5.63
2018-05-18T04:04:02.023Z,5.63
2018-05-18T04:05:01.843Z,5.63
2018-05-18T04:06:01.825Z,5.63
2018-05-18T04:07:01.687Z,5.63
2018-05-18T04:08:01.635Z,5.63
2018-05-18T04:09:01.534Z,5.63
2018-05-18T04:10:01.550Z,5.63
2018-05-18T04:11:01.383Z,5.63
2018-05-18T04:12:01.359Z,5.63
2018-05-18T04:13:01.239Z,5.63
2018-05-18T04:14:01.267Z,5.63
2018-05-18T04:15:01.079Z,5.63
2018-05-18T04:16:01.072Z,5.63
2018-05-18T04:17:00.925Z,5.63
2018-05-18T04:18:05.091Z,5.63
2018-05-18T04:19:00.767Z,5.63
2018-05-18T04:20:00.789Z,5.63
2018-05-18T04:21:00.618Z,5.63
2018-05-18T04:22:00.548Z,5.63
2018-05-18T04:23:00.464Z,5.63
2018-05-18T04:24:00.396Z,5.63
2018-05-18T04:25:00.316Z,11.25
2018-05-18T04:26:00.246Z,11.25
2018-05-18T04:27:00.160Z,11.25
2018-05-18T04:28:00.088Z,11.25
2018-05-18T04:29:00.007Z,11.25
2018-05-18T04:29:59.984Z,11.25
2018-05-18T04:30:59.856Z,11.25
2018-05-18T04:31:59.781Z,11.25
2018-05-18T04:32:59.700Z,11.25
2018-05-18T04:33:59.630Z,11.25
2018-05-18T04:34:59.546Z,11.25
2018-05-18T04:35:59.479Z,16.88
2018-05-18T04:36:59.399Z,16.88
2018-05-18T04:37:59.325Z,16.88
2018-05-18T04:38:59.240Z,16.88
2018-05-18T04:39:59.172Z,16.88
2018-05-18T04:40:59.090Z,16.88
2018-05-18T04:41:59.020Z,16.88
2018-05-18T04:42:58.935Z,16.88
2018-05-18T04:43:58.866Z,16.88
2018-05-18T04:44:58.781Z,16.88
2018-05-18T04:45:58.717Z,16.88
2018-05-18T04:46:58.634Z,16.88
2018-05-18T04:47:58.561Z,16.88
2018-05-18T04:48:58.479Z,16.88
2018-05-18T04:49:58.404Z,22.50
2018-05-18T04:50:58.328Z,22.50
2018-05-18T04:51:58.345Z,22.50
2018-05-18T04:52:58.178Z,22.50
2018-05-18T04:53:58.111Z,22.50
2018-05-18T04:54:58.028Z,16.88
2018-05-18T04:55:57.957Z,16.88
2018-05-18T04:56:57.871Z,16.88
2018-05-18T04:57:57.802Z,16.88
2018-05-18T04:58:57.771Z,16.88
2018-05-18T04:59:57.649Z,16.88
2018-05-18T05:00:57.559Z,16.88
2018-05-18T05:01:58.494Z,16.88
2018-05-18T05:02:57.415Z,16.88
2018-05-18T05:03:57.344Z,16.88
2018-05-18T05:04:57.260Z,16.88
2018-05-18T05:05:57.189Z,16.88
2018-05-18T05:06:57.106Z,16.88
2018-05-18T05:07:57.121Z,16.88
2018-05-18T05:08:56.954Z,22.50
2018-05-18T05:09:56.886Z,22.50
2018-05-18T05:10:56.798Z,22.50
2018-05-18T05:11:56.845Z,22.50
2018-05-18T05:12:56.662Z,22.50
2018-05-18T05:13:56.650Z,22.50
2018-05-18T05:14:56.499Z,22.50
2018-05-18T05:15:56.462Z,22.50
2018-05-18T05:16:56.347Z,22.50
2018-05-18T05:17:56.379Z,22.50
2018-05-18T05:18:56.195Z,22.50
2018-05-18T05:19:56.137Z,22.50
2018-05-18T05:20:56.041Z,22.50
2018-05-18T05:21:55.974Z,22.50
2018-05-18T05:22:55.889Z,22.50
2018-05-18T05:23:55.825Z,28.13
2018-05-18T05:24:55.739Z,22.50
2018-05-18T05:25:55.669Z,28.13
2018-05-18T05:26:55.582Z,28.13
2018-05-18T05:27:55.519Z,28.13
2018-05-18T05:28:55.434Z,22.50
2018-05-18T05:29:55.427Z,28.13
2018-05-18T05:30:55.289Z,28.13
2018-05-18T05:31:55.233Z,28.13
2018-05-18T05:32:55.133Z,22.50
2018-05-18T05:33:55.144Z,22.50
2018-05-18T05:34:54.980Z,28.13
2018-05-18T05:35:54.953Z,22.50
2018-05-18T05:36:54.826Z,22.50
2018-05-18T05:37:54.875Z,22.50
2018-05-18T05:38:55.598Z,22.50
2018-05-18T05:39:54.671Z,22.50
2018-05-18T05:40:54.528Z,22.50
2018-05-18T05:41:54.482Z,22.50
2018-05-18T05:42:54.370Z,22.50
2018-05-18T05:43:54.392Z,22.50
2018-05-18T05:44:54.220Z,22.50
2018-05-18T05:45:54.201Z,22.50
2018-05-18T05:46:54.079Z,22.50
2018-05-18T05:47:54.010Z,22.50
2018-05-18T05:48:53.914Z,22.50
2018-05-18T05:49:56.488Z,22.50
2018-05-18T05:50:53.770Z,22.50
2018-05-18T05:51:53.732Z,22.50
2018-05-18T05:52:53.687Z,28.13
2018-05-18T05:53:53.644Z,28.13
2018-05-18T05:54:53.460Z,28.13
2018-05-18T05:55:53.451Z,28.13
2018-05-18T05:56:53.316Z,28.13
2018-05-18T05:57:53.259Z,28.13
2018-05-18T05:58:53.154Z,28.13
2018-05-18T05:59:53.250Z,28.13
2018-05-18T06:00:53.004Z,28.13
2018-05-18T06:01:52.980Z,28.13
2018-05-18T06:02:52.850Z,28.13
2018-05-18T06:03:52.891Z,33.75
2018-05-18T06:04:52.703Z,33.75
2018-05-18T06:05:52.700Z,33.75
2018-05-18T06:06:52.555Z,39.38
2018-05-18T06:07:52.512Z,39.38
2018-05-18T06:08:52.401Z,39.38
2018-05-18T06:09:52.421Z,39.38
2018-05-18T06:10:52.250Z,39.38
2018-05-18T06:11:52.227Z,39.38
2018-05-18T06:12:52.092Z,39.38
2018-05-18T06:13:52.146Z,39.38
2018-05-18T06:14:51.944Z,39.38
2018-05-18T06:15:51.950Z,39.38
2018-05-18T06:16:51.791Z,39.38
2018-05-18T06:17:51.727Z,39.38
2018-05-18T06:18:51.642Z,39.38
2018-05-18T06:19:51.671Z,39.38
2018-05-18T06:20:51.490Z,39.38
2018-05-18T06:21:51.481Z,39.38
2018-05-18T06:22:51.334Z,45.00
2018-05-18T06:23:51.291Z,45.00
2018-05-18T06:24:51.189Z,45.00
2018-05-18T06:25:51.201Z,45.00
2018-05-18T06:26:51.039Z,45.00
2018-05-18T06:27:51.009Z,45.00
2018-05-18T06:28:50.946Z,45.00
2018-05-18T06:29:50.921Z,45.00
2018-05-18T06:30:50.739Z,50.63
2018-05-18T06:31:50.731Z,45.00
2018-05-18T06:32:50.583Z,50.63
2018-05-18T06:33:50.544Z,50.63
2018-05-18T06:34:50.449Z,50.63
2018-05-18T06:35:50.359Z,50.63
2018-05-18T06:36:50.281Z,50.63
2018-05-18T06:37:50.263Z,50.63
2018-05-18T06:38:50.128Z,56.25
2018-05-18T06:39:50.227Z,56.25
2018-05-18T06:40:49.971Z,56.25
2018-05-18T06:41:49.907Z,56.25
2018-05-18T06:42:49.822Z,56.25
2018-05-18T06:43:49.783Z,61.88
2018-05-18T06:44:49.669Z,61.88
2018-05-18T06:45:49.697Z,61.88
2018-05-18T06:46:49.525Z,61.88
2018-05-18T06:47:49.510Z,67.50
2018-05-18T06:48:49.370Z,67.50
2018-05-18T06:49:49.322Z,67.50
2018-05-18T06:50:49.219Z,67.50
2018-05-18T06:51:49.228Z,67.50
2018-05-18T06:52:49.071Z,67.50
2018-05-18T06:53:49.038Z,67.50
2018-05-18T06:54:48.917Z,67.50
2018-05-18T06:55:48.946Z,73.13
2018-05-18T06:56:48.773Z,73.13
2018-05-18T06:57:48.762Z,73.13
2018-05-18T06:58:48.661Z,73.13
2018-05-18T06:59:48.568Z,73.13
2018-05-18T07:00:48.466Z,73.13
2018-05-18T07:01:48.481Z,78.75
2018-05-18T07:02:48.317Z,84.38
2018-05-18T07:03:48.287Z,84.38
2018-05-18T07:04:48.164Z,90.00
2018-05-18T07:05:48.198Z,90.00
2018-05-18T07:06:48.032Z,95.63
2018-05-18T07:07:48.011Z,95.63
2018-05-18T07:08:47.871Z,101.25
2018-05-18T07:09:47.818Z,101.25
2018-05-18T07:10:47.715Z,101.25
2018-05-18T07:11:47.639Z,106.88
2018-05-18T07:12:47.632Z,106.88
2018-05-18T07:13:47.492Z,112.50
2018-05-18T07:14:47.443Z,118.13
2018-05-18T07:15:47.340Z,118.13
2018-05-18T07:16:47.367Z,118.13
2018-05-18T07:17:47.214Z,123.75
2018-05-18T07:18:47.161Z,123.75
2018-05-18T07:19:47.039Z,123.75
2018-05-18T07:20:47.078Z,123.75
2018-05-18T07:21:46.891Z,129.38
2018-05-18T07:22:46.887Z,129.38
2018-05-18T07:23:46.745Z,135.00
2018-05-18T07:24:46.700Z,129.38
2018-05-18T07:25:46.598Z,112.50
2018-05-18T07:26:46.523Z,106.88
2018-05-18T07:27:46.441Z,101.25
2018-05-18T07:28:46.413Z,106.88
2018-05-18T07:29:46.301Z,123.75
2018-05-18T07:30:46.322Z,146.25
2018-05-18T07:31:46.144Z,163.13
2018-05-18T07:32:46.134Z,174.38
2018-05-18T07:33:45.998Z,180.00
2018-05-18T07:34:46.042Z,185.63
2018-05-18T07:35:45.848Z,191.25
2018-05-18T07:36:45.852Z,191.25
2018-05-18T07:37:45.701Z,196.88
2018-05-18T07:38:45.667Z,196.88
2018-05-18T07:39:45.549Z,202.50
2018-05-18T07:40:45.575Z,208.13
2018-05-18T07:41:45.404Z,208.13
2018-05-18T07:42:45.386Z,213.75
2018-05-18T07:43:45.326Z,213.75
2018-05-18T07:44:45.294Z,219.38
2018-05-18T07:45:45.110Z,219.38
2018-05-18T07:46:45.107Z,219.38
2018-05-18T07:47:44.959Z,202.50
2018-05-18T07:48:44.914Z,208.13
2018-05-18T07:49:44.814Z,213.75
2018-05-18T07:50:44.824Z,208.13
2018-05-18T07:51:44.672Z,180.00
2018-05-18T07:52:44.636Z,146.25
2018-05-18T07:53:44.525Z,56.25
2018-05-18T07:54:44.547Z,123.75
2018-05-18T07:55:44.374Z,135.00
2018-05-18T07:56:44.353Z,129.38
2018-05-18T07:57:44.229Z,118.13
2018-05-18T07:58:44.267Z,118.13
2018-05-18T07:59:44.087Z,112.50
2018-05-18T08:00:44.075Z,112.50
2018-05-18T08:01:43.934Z,106.88
2018-05-18T08:02:43.891Z,90.00
2018-05-18T08:03:43.787Z,95.63
2018-05-18T08:04:43.795Z,101.25
2018-05-18T08:05:43.642Z,106.88
2018-05-18T08:06:43.608Z,123.75
2018-05-18T08:07:43.581Z,135.00
2018-05-18T08:08:43.518Z,135.00
2018-05-18T08:09:43.349Z,135.00
2018-05-18T08:10:43.287Z,146.25
2018-05-18T08:11:43.201Z,140.63
2018-05-18T08:12:43.134Z,135.00
2018-05-18T08:13:43.056Z,146.25
2018-05-18T08:14:43.046Z,163.13
2018-05-18T08:15:42.911Z,174.38
2018-05-18T08:16:42.975Z,202.50
2018-05-18T08:17:42.769Z,219.38
2018-05-18T08:18:42.767Z,219.38
2018-05-18T08:19:42.624Z,219.38
2018-05-18T08:20:42.576Z,230.63
2018-05-18T08:21:42.488Z,208.13
2018-05-18T08:22:42.489Z,275.63
2018-05-18T08:23:42.328Z,281.25
2018-05-18T08:24:42.300Z,230.63
2018-05-18T08:25:42.176Z,163.13
2018-05-18T08:26:42.205Z,140.63
2018-05-18T08:27:42.094Z,118.13
2018-05-18T08:28:42.016Z,106.88
2018-05-18T08:29:41.888Z,281.25
2018-05-18T08:30:41.933Z,281.25
2018-05-18T08:31:41.748Z,281.25
2018-05-18T08:32:41.747Z,286.88
2018-05-18T08:33:41.602Z,270.00
2018-05-18T08:34:41.563Z,106.88
2018-05-18T08:35:41.457Z,101.25
2018-05-18T08:36:41.460Z,78.75
2018-05-18T08:37:41.315Z,78.75
2018-05-18T08:38:41.268Z,73.13
2018-05-18T08:39:41.167Z,73.13
2018-05-18T08:40:41.181Z,95.63
2018-05-18T08:41:41.020Z,281.25
2018-05-18T08:42:41.040Z,281.25
2018-05-18T08:43:40.877Z,270.00
2018-05-18T08:44:40.849Z,123.75
2018-05-18T08:45:40.732Z,78.75
2018-05-18T08:46:40.759Z,73.13
2018-05-18T08:47:40.588Z,95.63
2018-05-18T08:48:40.570Z,180.00
2018-05-18T08:49:40.443Z,253.13
2018-05-18T08:50:40.477Z,253.13
2018-05-18T08:51:40.299Z,241.88
2018-05-18T08:52:40.283Z,236.25
2018-05-18T08:53:40.156Z,230.63
2018-05-18T08:54:40.196Z,225.00
2018-05-18T08:55:40.018Z,230.63
2018-05-18T08:56:40.006Z,236.25
2018-05-18T08:57:39.869Z,230.63
2018-05-18T08:58:39.815Z,208.13
2018-05-18T08:59:39.726Z,90.00
2018-05-18T09:00:39.747Z,230.63
2018-05-18T09:01:39.583Z,225.00
2018-05-18T09:02:39.533Z,208.13
2018-05-18T09:03:39.441Z,219.38
2018-05-18T09:04:39.443Z,230.63
2018-05-18T09:05:39.295Z,241.88
2018-05-18T09:06:39.252Z,241.88
2018-05-18T09:07:39.149Z,253.13
2018-05-18T09:08:39.168Z,258.75
2018-05-18T09:09:39.011Z,253.13
2018-05-18T09:10:38.972Z,213.75
2018-05-18T09:11:38.867Z,84.38
2018-05-18T09:12:38.887Z,253.13
2018-05-18T09:13:38.726Z,236.25
2018-05-18T09:14:38.691Z,202.50
2018-05-18T09:15:38.584Z,213.75
2018-05-18T09:16:38.601Z,84.38
2018-05-18T09:17:38.521Z,112.50
2018-05-18T09:18:38.416Z,208.13
2018-05-18T09:19:38.296Z,151.88
2018-05-18T09:20:38.325Z,73.13
2018-05-18T09:21:38.153Z,67.50
2018-05-18T09:22:38.139Z,78.75
2018-05-18T09:23:38.010Z,275.63
2018-05-18T09:24:38.046Z,270.00
2018-05-18T09:25:37.870Z,118.13
2018-05-18T09:26:37.853Z,202.50
2018-05-18T09:27:37.728Z,95.63
2018-05-18T09:28:37.772Z,146.25
2018-05-18T09:29:37.587Z,270.00
2018-05-18T09:30:37.575Z,264.38
2018-05-18T09:31:37.445Z,270.00
2018-05-18T09:32:37.480Z,264.38
2018-05-18T09:33:37.302Z,270.00
2018-05-18T09:34:37.289Z,270.00
2018-05-18T09:35:37.160Z,264.38
2018-05-18T09:36:37.198Z,270.00
2018-05-18T09:37:37.017Z,275.63
2018-05-18T09:38:37.012Z,106.88
2018-05-18T09:39:36.875Z,196.88
2018-05-18T09:40:36.919Z,118.13
2018-05-18T09:41:36.736Z,281.25
2018-05-18T09:42:36.726Z,101.25
2018-05-18T09:43:36.592Z,281.25
2018-05-18T09:44:36.637Z,146.25
2018-05-18T09:45:36.453Z,101.25
2018-05-18T09:46:36.446Z,101.25
2018-05-18T09:47:36.312Z,270.00
2018-05-18T09:48:36.364Z,286.88
2018-05-18T09:49:36.171Z,281.25
2018-05-18T09:50:36.164Z,118.13
2018-05-18T09:51:36.028Z,106.88
2018-05-18T09:52:35.977Z,78.75
2018-05-18T09:53:35.892Z,73.13
2018-05-18T09:54:35.885Z,61.88
2018-05-18T09:55:35.837Z,61.88
2018-05-18T09:56:35.679Z,61.88
2018-05-18T09:57:35.703Z,61.88
2018-05-18T09:58:35.532Z,67.50
2018-05-18T09:59:35.510Z,258.75
2018-05-18T10:00:35.445Z,258.75
2018-05-18T10:01:35.418Z,264.38
2018-05-18T10:02:35.253Z,270.00
2018-05-18T10:03:35.228Z,236.25
2018-05-18T10:04:35.114Z,281.25
2018-05-18T10:05:35.142Z,275.63
2018-05-18T10:06:34.973Z,90.00
2018-05-18T10:07:34.944Z,84.38
2018-05-18T10:08:34.833Z,84.38
2018-05-18T10:09:34.861Z,84.38
2018-05-18T10:10:34.692Z,84.38
2018-05-18T10:11:34.672Z,84.38
2018-05-18T10:12:34.553Z,106.88
2018-05-18T10:13:34.579Z,230.63
2018-05-18T10:14:34.411Z,241.88
2018-05-18T10:15:34.382Z,78.75
2018-05-18T10:16:34.271Z,78.75
2018-05-18T10:17:34.300Z,78.75
2018-05-18T10:18:34.220Z,95.63
2018-05-18T10:19:34.108Z,253.13
2018-05-18T10:20:33.985Z,247.50
2018-05-18T10:21:34.017Z,247.50
2018-05-18T10:22:33.849Z,247.50
2018-05-18T10:23:33.828Z,253.13
2018-05-18T10:24:33.706Z,168.75
2018-05-18T10:25:33.737Z,101.25
2018-05-18T10:26:33.569Z,90.00
2018-05-18T10:27:33.546Z,174.38
2018-05-18T10:28:33.425Z,213.75
2018-05-18T10:29:33.457Z,219.38
2018-05-18T10:30:33.290Z,236.25
2018-05-18T10:31:33.266Z,230.63
2018-05-18T10:32:33.146Z,225.00
2018-05-18T10:33:33.178Z,202.50
2018-05-18T10:34:33.006Z,191.25
2018-05-18T10:35:32.985Z,174.38
2018-05-18T10:36:32.871Z,168.75
2018-05-18T10:37:32.891Z,174.38
2018-05-18T10:38:32.730Z,191.25
2018-05-18T10:39:32.755Z,191.25
2018-05-18T10:40:32.585Z,135.00
2018-05-18T10:41:32.611Z,146.25
2018-05-18T10:42:32.447Z,118.13
2018-05-18T10:43:32.425Z,106.88
2018-05-18T10:44:32.313Z,112.50
2018-05-18T10:45:32.333Z,140.63
2018-05-18T10:46:32.173Z,140.63
2018-05-18T10:47:32.141Z,151.88
2018-05-18T10:48:32.030Z,168.75
2018-05-18T10:49:32.049Z,180.00
2018-05-18T10:50:31.893Z,202.50
2018-05-18T10:51:31.842Z,213.75
2018-05-18T10:52:31.752Z,208.13
2018-05-18T10:53:31.683Z,106.88
2018-05-18T10:54:31.662Z,140.63
2018-05-18T10:55:31.539Z,219.38
2018-05-18T10:56:31.574Z,219.38
2018-05-18T10:57:31.403Z,225.00
2018-05-18T10:58:31.381Z,225.00
2018-05-18T10:59:31.282Z,225.00
2018-05-18T11:00:31.189Z,225.00
2018-05-18T11:01:31.308Z,225.00
2018-05-18T11:02:31.064Z,196.88
2018-05-18T11:03:30.985Z,174.38
2018-05-18T11:04:30.913Z,84.38
2018-05-18T11:05:30.937Z,78.75
2018-05-18T11:06:30.779Z,78.75
2018-05-18T11:07:30.740Z,84.38
2018-05-18T11:08:30.638Z,101.25
2018-05-18T11:09:30.576Z,225.00
2018-05-18T11:10:30.501Z,230.63
2018-05-18T11:11:30.435Z,219.38
2018-05-18T11:12:30.361Z,225.00
2018-05-18T11:13:30.298Z,180.00
2018-05-18T11:14:30.233Z,95.63
2018-05-18T11:15:30.157Z,90.00
2018-05-18T11:16:30.084Z,135.00
2018-05-18T11:17:30.028Z,90.00
2018-05-18T11:18:29.942Z,90.00
2018-05-18T11:19:29.885Z,95.63
2018-05-18T11:20:29.804Z,106.88
2018-05-18T11:21:29.747Z,101.25
2018-05-18T11:22:29.668Z,208.13
2018-05-18T11:23:29.607Z,213.75
2018-05-18T11:24:29.532Z,213.75
2018-05-18T11:25:29.470Z,213.75
2018-05-18T11:26:29.390Z,208.13
2018-05-18T11:27:29.334Z,73.13
2018-05-18T11:28:29.256Z,67.50
2018-05-18T11:29:29.191Z,73.13
2018-05-18T11:30:29.114Z,90.00
2018-05-18T11:31:29.055Z,95.63
2018-05-18T11:32:28.975Z,196.88
2018-05-18T11:33:28.913Z,213.75
2018-05-18T11:34:28.834Z,208.13
2018-05-18T11:35:28.785Z,151.88
2018-05-18T11:36:28.698Z,191.25
2018-05-18T11:37:28.637Z,208.13
2018-05-18T11:38:28.561Z,202.50
2018-05-18T11:39:28.496Z,202.50
2018-05-18T11:40:28.420Z,202.50
2018-05-18T11:41:28.362Z,208.13
2018-05-18T11:42:28.292Z,208.13
2018-05-18T11:43:28.227Z,213.75
2018-05-18T11:44:28.144Z,140.63
2018-05-18T11:45:28.090Z,90.00
2018-05-18T11:46:28.002Z,140.63
2018-05-18T11:47:27.948Z,112.50
2018-05-18T11:48:27.867Z,67.50
2018-05-18T11:49:27.819Z,61.88
2018-05-18T11:50:27.724Z,61.88
2018-05-18T11:51:27.664Z,61.88
2018-05-18T11:52:27.588Z,61.88
2018-05-18T11:53:27.534Z,106.88
2018-05-18T11:54:27.451Z,213.75
2018-05-18T11:55:27.389Z,208.13
2018-05-18T11:56:27.312Z,208.13
2018-05-18T11:57:27.250Z,208.13
2018-05-18T11:58:27.174Z,202.50
2018-05-18T11:59:27.120Z,202.50
2018-05-18T12:00:27.036Z,202.50
2018-05-18T12:01:26.975Z,202.50
2018-05-18T12:02:26.995Z,202.50
2018-05-18T12:03:26.841Z,202.50
2018-05-18T12:04:26.761Z,202.50
2018-05-18T12:05:26.699Z,202.50
2018-05-18T12:06:26.632Z,202.50
2018-05-18T12:07:26.566Z,202.50
2018-05-18T12:08:26.600Z,123.75
2018-05-18T12:09:26.421Z,140.63
2018-05-18T12:10:26.348Z,90.00
2018-05-18T12:11:26.362Z,146.25
2018-05-18T12:12:26.212Z,202.50
2018-05-18T12:13:26.149Z,202.50
2018-05-18T12:14:26.071Z,196.88
2018-05-18T12:15:26.013Z,196.88
2018-05-18T12:16:25.944Z,191.25
2018-05-18T12:17:25.879Z,185.63
2018-05-18T12:18:25.798Z,191.25
2018-05-18T12:19:25.737Z,191.25
2018-05-18T12:20:25.745Z,191.25
2018-05-18T12:21:25.597Z,180.00
2018-05-18T12:22:25.519Z,180.00
2018-05-18T12:23:25.461Z,180.00
2018-05-18T12:24:25.393Z,180.00
2018-05-18T12:25:25.325Z,180.00
2018-05-18T12:26:25.251Z,185.63
2018-05-18T12:27:25.195Z,185.63
2018-05-18T12:28:25.115Z,185.63
2018-05-18T12:29:25.050Z,185.63
2018-05-18T12:30:24.980Z,180.00
2018-05-18T12:31:24.915Z,191.25
2018-05-18T12:32:24.833Z,191.25
2018-05-18T12:33:24.778Z,191.25
2018-05-18T12:34:24.701Z,191.25
2018-05-18T12:35:24.638Z,185.63
2018-05-18T12:36:24.562Z,185.63
2018-05-18T12:37:24.503Z,185.63
2018-05-18T12:38:24.447Z,191.25
2018-05-18T12:39:24.365Z,191.25
2018-05-18T12:40:24.294Z,191.25
2018-05-18T12:41:24.231Z,191.25
2018-05-18T12:42:24.155Z,191.25
2018-05-18T12:43:24.092Z,185.63
2018-05-18T12:44:24.019Z,191.25
2018-05-18T12:45:23.956Z,191.25
2018-05-18T12:46:23.884Z,191.25
2018-05-18T12:47:23.820Z,78.75
2018-05-18T12:48:23.747Z,185.63
2018-05-18T12:49:23.684Z,185.63
2018-05-18T12:50:23.607Z,191.25
2018-05-18T12:51:23.551Z,191.25